Historyczne dane pomiarowe

Dodano dane terminowe – wersja testowa.

Dane z okresu 1951-2019

Wersja bazy: 1.34 [2019-03-16, lista zmian], aktualizacja planowana na 2019-04-15

Dane meteo z obszaru Polski uzyskane na podstawie danych udostępnionych przez Instytut Meteorologii i Gospodarki Wodnej – Państwowy Instytut Badawczy.

 

Wybierz Datę:    

       

TemperaturaWilgotnośćWiatrCiśnienieOpadyŚniegCzas trwania zjawisk
 Stacja t tx tn tng RH VA  wxwx mslp ppp RRR   cm mm wxwxwxwxwxwxwx
1963-02-14 -4.2 -2.0 -5.2--- 8.0 0.0---- 0.0-- 75---------
1963-02-15 -8.4 -2.7-12.7--- 6.3 0.3---- 0.2-- 73---------
1963-02-16 -9.9 -1.6-15.7--- 2.3 1.0---- 0.0-- 71---------
1963-02-17 -1.3 0.6-12.3--- 8.0 0.7---- 0.3-- 69---------
1963-02-18 -4.1 0.0 -6.0--- 4.0 1.7---- 0.0-- 67---------
1963-02-19 -2.9 2.0-11.3--- 7.3 1.0---- 0.1-- 66---------
1963-02-20 -4.8 -2.6 -6.5--- 8.0 0.7---- 7.0-- 65---------
1963-02-21 -7.4 -4.1 -9.4--- 7.7 0.7---- 2.6-- 70---------
1963-02-22-12.2 -8.1-14.7--- 6.0 1.7---- 0.0-- 74---------
1963-02-23-17.7 -8.6-23.4--- 2.7 1.0---- 0.0-- 72---------
1963-02-24-16.6 -7.1-23.1--- 0.3 1.3---- 0.0-- 70---------
1963-02-25-13.7 -4.1-21.5--- 0.7 0.0---- 1.0-- 69---------
1963-02-26 -9.6 -4.6-15.6--- 8.0 2.3---- 0.5-- 69---------
1963-02-27-22.2-11.6-29.9--- 1.3 2.0---- 0.0-- 69---------
1963-02-28-22.1-11.7-28.6--- 0.0 1.0---- 0.0-- 68---------
1963-03-01-16.8 -6.6-27.3--- 3.7 1.3---- 0.0-- 68---------
1963-03-02 -8.5 -1.8-20.6--- 2.3 1.3---- 0.0-- 66---------
1963-03-03 -4.8 1.6-14.7--- 3.3 3.3---- 0.2-- 64---------
1963-03-04 -5.4 -3.5 -7.2--- 7.7 2.3---- 2.2-- 62---------
1963-03-05 -4.9 1.0 -7.4--- 6.0 1.0---- 0.0-- 62---------
1963-03-06 -2.4 6.0-15.5--- 2.7 0.7---- 0.0-- 60---------
1963-03-07 7.4 10.9 0.7--- 5.0 9.0---- 0.0-- 57---------
1963-03-08 3.0 8.2 -0.4--- 3.7 4.3---- 0.0-- 53---------
1963-03-09 2.6 9.3 -2.2--- 6.7 4.0---- 1.8-- 50---------
1963-03-10 1.2 5.4 -3.2--- 5.7 0.7---- 0.0-- 46---------
1963-03-11 1.9 6.4 0.2--- 5.7 2.0---- 0.0-- 44---------
1963-03-12 1.2 4.8 -2.0--- 7.7 0.7---- 7.0-- 42---------
1963-03-13 -0.1 3.0 -1.8--- 8.0 8.7---- 4.7-- 40---------
1963-03-14 -8.3 -1.6-11.5--- 7.7 1.3---- 0.4-- 42---------
1963-03-15-13.7 -6.1-21.4--- 0.0 1.7---- 0.0-- 42---------
320.1 ms

 

Źródłem pochodzenia danych jest Instytut Meteorologii i Gospodarki Wodnej – Państwowy Instytut Badawczy. Dane Instytutu Meteorologii i Gospodarki Wodnej – Państwowego Instytutu Badawczego zostały przetworzone.

Dane źródłowe można odnaleźć na stronie https://dane.imgw.pl